Time;durP1;ratioP1;P1;durP2;ratioP2;P2;SDS_P1;SDS_P2;PMS_P1;PMS_P2;Temp;Humidity;BMP_temperature;BMP_pressure;BME280_temperature;BME280_humidity;BME280_pressure;Samples;Min_cycle;Max_cycle;Signal;HPM_P1;HPM_P2
2021/05/19 00:00:33;;;;;;;14.32;7.60;;;;;;;18.72;48.71;101265.00;5001188;28;20100;-74
2021/05/19 00:03:00;;;;;;;13.20;7.20;;;;;;;18.70;48.99;101254.47;5033578;28;20083;-74
2021/05/19 00:05:26;;;;;;;14.00;7.03;;;;;;;18.70;48.44;101251.78;5017533;28;20053;-74
2021/05/19 00:07:53;;;;;;;13.70;7.07;;;;;;;18.69;49.06;101252.81;5033440;28;20529;-74
2021/05/19 00:10:20;;;;;;;13.35;7.30;;;;;;;18.65;48.55;101237.28;5033387;28;20120;-74
2021/05/19 00:12:47;;;;;;;13.40;7.18;;;;;;;18.71;48.83;101247.25;5017081;28;20164;-74
2021/05/19 00:15:14;;;;;;;13.13;7.10;;;;;;;18.67;48.93;101241.44;5016703;28;20049;-74
2021/05/19 00:17:42;;;;;;;13.48;6.75;;;;;;;18.70;48.23;101254.47;5033242;28;20065;-74
2021/05/19 00:20:11;;;;;;;13.77;6.93;;;;;;;18.70;48.62;101240.19;5001124;28;20049;-74
2021/05/19 00:22:38;;;;;;;12.80;6.88;;;;;;;18.70;48.84;101245.56;5033218;28;20042;-74
2021/05/19 00:25:06;;;;;;;13.73;6.75;;;;;;;18.65;49.06;101238.09;5032546;28;20033;-74
2021/05/19 00:27:33;;;;;;;13.80;6.65;;;;;;;18.67;48.63;101244.09;5000939;28;20072;-74
2021/05/19 00:30:02;;;;;;;12.20;6.22;;;;;;;18.68;48.94;101251.16;5004533;28;20046;-74
2021/05/19 00:32:29;;;;;;;11.73;6.30;;;;;;;18.69;48.66;101243.91;5013038;28;20034;-74
2021/05/19 00:34:55;;;;;;;12.10;5.72;;;;;;;18.68;48.77;101234.19;5029723;28;20120;-74
2021/05/19 00:37:22;;;;;;;14.60;6.28;;;;;;;18.67;48.78;101244.09;5013987;28;20066;-74
2021/05/19 00:39:50;;;;;;;10.93;5.90;;;;;;;18.64;48.62;101232.91;5014412;28;20092;-74
2021/05/19 00:42:17;;;;;;;12.02;5.95;;;;;;;18.64;48.78;101239.13;4980935;28;20037;-74
2021/05/19 00:44:43;;;;;;;11.27;5.78;;;;;;;18.67;48.66;101241.44;4980592;28;20137;-74
2021/05/19 00:47:10;;;;;;;10.82;5.75;;;;;;;18.68;48.46;101240.41;5012804;28;20068;-74
2021/05/19 00:49:38;;;;;;;11.23;5.57;;;;;;;18.68;48.41;101244.94;5013168;28;20053;-74
2021/05/19 00:52:08;;;;;;;11.85;5.63;;;;;;;18.69;48.33;101242.06;4997042;28;20038;-74
2021/05/19 00:54:35;;;;;;;11.52;5.70;;;;;;;18.68;48.74;101242.25;5003943;28;20054;-74
2021/05/19 00:57:02;;;;;;;11.43;5.60;;;;;;;18.68;48.68;101245.78;4980378;28;20057;-74
2021/05/19 00:59:29;;;;;;;10.00;5.38;;;;;;;18.67;48.82;101246.78;5013096;28;20499;-74
2021/05/19 01:02:02;;;;;;;10.50;5.40;;;;;;;18.67;48.23;101243.28;5012348;28;20052;-74
2021/05/19 01:04:29;;;;;;;10.57;4.97;;;;;;;18.66;48.60;101231.69;4980344;28;20107;-74
2021/05/19 01:07:09;;;;;;;9.93;4.72;;;;;;;18.64;48.64;101228.38;5006613;28;20049;-74
2021/05/19 01:09:35;;;;;;;10.43;5.03;;;;;;;18.65;48.73;101231.91;5012770;28;20057;-74
2021/05/19 01:12:05;;;;;;;10.88;5.05;;;;;;;18.54;48.71;101219.84;4993424;28;20062;-74
2021/05/19 01:14:32;;;;;;;8.85;4.70;;;;;;;18.67;48.60;101238.75;5032250;28;20496;-74
2021/05/19 01:16:59;;;;;;;11.23;5.03;;;;;;;18.66;48.62;101236.25;5031670;28;20572;-74
2021/05/19 01:19:27;;;;;;;9.75;4.80;;;;;;;18.65;48.67;101238.09;5032036;28;20124;-74
2021/05/19 01:21:55;;;;;;;10.05;4.55;;;;;;;18.66;48.87;101233.56;5015977;28;20465;-74
2021/05/19 01:24:23;;;;;;;9.10;4.43;;;;;;;18.63;48.71;101232.09;5015987;28;20470;-74
2021/05/19 01:26:50;;;;;;;12.43;5.13;;;;;;;18.64;48.66;101236.44;4999734;28;20064;-74
2021/05/19 01:29:17;;;;;;;10.65;4.90;;;;;;;18.65;48.56;101223.84;4996294;28;20052;-74
2021/05/19 01:31:46;;;;;;;10.32;4.53;;;;;;;18.66;48.86;101228.19;5044767;28;20054;-74
2021/05/19 01:34:13;;;;;;;10.80;4.65;;;;;;;18.64;48.62;101225.69;5013503;28;20045;-74
2021/05/19 01:36:41;;;;;;;9.43;4.32;;;;;;;18.64;48.71;101238.28;5013046;28;20521;-74
2021/05/19 01:39:08;;;;;;;10.18;4.47;;;;;;;18.65;48.61;101230.03;5028268;28;20053;-74
2021/05/19 01:41:36;;;;;;;10.40;4.75;;;;;;;18.60;48.94;101227.94;5012240;28;20046;-74
2021/05/19 01:44:16;;;;;;;9.13;4.38;;;;;;;18.64;48.38;101233.75;5027808;28;20048;-74
2021/05/19 01:46:56;;;;;;;8.48;3.95;;;;;;;18.63;48.82;101233.94;5011759;28;20096;-74
2021/05/19 01:49:26;;;;;;;9.63;4.40;;;;;;;18.63;48.91;101234.78;5044955;28;20042;-74
2021/05/19 01:51:53;;;;;;;8.02;3.90;;;;;;;18.61;48.79;101234.97;5028327;28;20513;-74
2021/05/19 01:54:20;;;;;;;9.85;4.20;;;;;;;18.51;48.80;101221.03;5011955;28;20052;-74
2021/05/19 01:56:47;;;;;;;8.75;4.07;;;;;;;18.61;48.75;101232.28;5012797;28;20075;-74
2021/05/19 01:59:14;;;;;;;8.43;3.95;;;;;;;18.63;48.73;101239.31;5033017;28;20073;-74
2021/05/19 02:01:44;;;;;;;9.98;4.10;;;;;;;18.61;48.83;101234.16;5015245;28;20049;-74
2021/05/19 02:04:15;;;;;;;8.43;3.58;;;;;;;18.57;48.72;101230.16;5015710;28;20406;-74
2021/05/19 02:06:57;;;;;;;9.93;4.18;;;;;;;18.64;48.52;101227.56;5031461;28;20443;-74
2021/05/19 02:09:36;;;;;;;8.63;3.83;;;;;;;18.59;48.87;101228.97;5017073;28;20045;-74
2021/05/19 02:12:05;;;;;;;8.07;3.70;;;;;;;18.61;48.38;101228.78;4999551;28;20050;-74
2021/05/19 02:14:33;;;;;;;8.48;3.83;;;;;;;18.63;48.71;101232.09;5028190;28;20054;-74
2021/05/19 02:17:01;;;;;;;8.68;3.60;;;;;;;18.62;48.70;101227.75;5011548;28;20411;-74
2021/05/19 02:19:28;;;;;;;8.30;3.70;;;;;;;18.61;48.77;101237.66;5012784;28;20129;-74
2021/05/19 02:21:58;;;;;;;7.85;3.60;;;;;;;18.63;48.74;101236.63;5027671;28;20042;-74
2021/05/19 02:24:30;;;;;;;7.75;3.40;;;;;;;18.63;48.26;101237.47;5002195;28;20507;-74
2021/05/19 02:26:57;;;;;;;8.35;3.22;;;;;;;18.63;48.65;101233.94;5011926;28;20052;-74
2021/05/19 02:29:28;;;;;;;8.02;3.42;;;;;;;18.61;48.76;101231.47;4983895;28;20049;-74
2021/05/19 02:31:55;;;;;;;8.30;3.70;;;;;;;18.63;48.69;101239.31;4995566;28;20050;-74
2021/05/19 02:34:23;;;;;;;7.57;3.40;;;;;;;18.61;48.44;101231.47;5011702;28;20111;-74
2021/05/19 02:36:53;;;;;;;8.65;3.50;;;;;;;18.59;48.91;101241.56;5012971;28;20054;-74
2021/05/19 02:39:21;;;;;;;7.90;3.13;;;;;;;18.61;48.58;101231.47;5003163;28;20042;-74
2021/05/19 02:41:54;;;;;;;8.45;3.40;;;;;;;18.62;48.77;101241.16;5028154;28;20054;-74
2021/05/19 02:44:21;;;;;;;7.15;3.33;;;;;;;18.61;48.66;101232.28;5011776;28;20046;-74
2021/05/19 02:46:48;;;;;;;8.77;3.40;;;;;;;18.62;48.67;101235.81;4995265;28;20137;-74
2021/05/19 02:49:14;;;;;;;8.02;3.17;;;;;;;18.62;48.60;101249.22;5015821;28;20042;-74
2021/05/19 02:51:41;;;;;;;6.55;3.00;;;;;;;18.57;48.60;101240.91;5053383;28;20042;-74
2021/05/19 02:54:08;;;;;;;6.60;3.05;;;;;;;18.57;48.66;101235.53;5037806;28;20044;-74
2021/05/19 02:56:35;;;;;;;8.15;3.20;;;;;;;18.61;48.45;101244.91;5037135;28;20041;-74
2021/05/19 02:59:03;;;;;;;7.72;3.35;;;;;;;18.61;48.74;101248.41;5040320;28;20045;-74
2021/05/19 03:01:30;;;;;;;7.97;3.35;;;;;;;18.60;48.48;101243.22;5039804;28;20077;-74
2021/05/19 03:03:57;;;;;;;7.35;3.10;;;;;;;18.60;48.41;101244.06;5051530;28;20065;-74
2021/05/19 03:06:24;;;;;;;7.15;3.10;;;;;;;18.60;48.54;101249.44;5018985;28;20152;-74
2021/05/19 03:08:52;;;;;;;8.95;3.20;;;;;;;18.59;48.71;101246.94;5035087;28;20548;-74
2021/05/19 03:11:19;;;;;;;6.97;2.83;;;;;;;18.55;48.43;101249.16;5018106;28;20056;-74
2021/05/19 03:13:46;;;;;;;6.43;2.80;;;;;;;18.58;48.74;101250.66;5037365;28;20116;-74
2021/05/19 03:16:14;;;;;;;6.18;2.95;;;;;;;18.60;48.80;101256.66;5037800;28;20045;-74
2021/05/19 03:18:40;;;;;;;7.85;2.85;;;;;;;18.59;48.58;101260.34;5038138;28;20045;-74
2021/05/19 03:21:07;;;;;;;6.47;2.80;;;;;;;18.57;48.34;101260.56;5038024;28;20045;-74
2021/05/19 03:23:34;;;;;;;6.80;2.60;;;;;;;18.59;48.55;101265.72;5038248;28;20041;-74
2021/05/19 03:26:01;;;;;;;6.97;3.10;;;;;;;18.58;48.64;101264.91;5048834;28;20060;-74
2021/05/19 03:28:28;;;;;;;6.85;2.90;;;;;;;18.59;48.41;101260.34;5037831;28;20448;-74
2021/05/19 03:30:55;;;;;;;6.20;2.50;;;;;;;18.55;48.19;101253.72;5035509;28;20056;-74
2021/05/19 03:33:22;;;;;;;6.22;2.70;;;;;;;18.54;48.43;101246.72;5035524;28;20048;-74
2021/05/19 03:35:49;;;;;;;6.57;2.80;;;;;;;18.58;48.43;101258.72;5033979;28;20611;-74
2021/05/19 03:38:17;;;;;;;6.55;2.90;;;;;;;18.56;48.43;101258.09;5001422;28;20058;-74
2021/05/19 03:40:44;;;;;;;6.88;2.72;;;;;;;18.58;48.63;101259.53;5001331;28;20069;-74
2021/05/19 03:43:11;;;;;;;7.55;2.67;;;;;;;18.50;48.38;101250.78;5017629;28;20486;-74
2021/05/19 03:45:38;;;;;;;6.53;2.78;;;;;;;18.57;48.42;101257.91;4995132;28;20045;-74
2021/05/19 03:48:05;;;;;;;5.97;2.65;;;;;;;18.54;48.38;101260.97;5033670;28;20048;-74
2021/05/19 03:50:33;;;;;;;6.75;2.63;;;;;;;18.57;48.44;101262.41;5033825;28;20045;-74
2021/05/19 03:53:03;;;;;;;6.82;2.80;;;;;;;18.59;48.22;101265.72;5022032;28;20044;-74
2021/05/19 03:55:30;;;;;;;5.93;2.70;;;;;;;18.57;48.40;101274.00;5033643;28;20089;-74
2021/05/19 03:57:57;;;;;;;5.22;2.50;;;;;;;18.58;48.60;101274.84;5034823;28;20046;-74
2021/05/19 04:00:31;;;;;;;6.13;2.50;;;;;;;18.57;48.51;101282.06;5033741;28;20046;-74
2021/05/19 04:02:58;;;;;;;5.80;2.58;;;;;;;18.58;48.56;101275.66;5016602;28;20056;-74
2021/05/19 04:05:27;;;;;;;6.45;2.30;;;;;;;18.57;48.46;101265.09;5033638;28;20129;-74
2021/05/19 04:07:55;;;;;;;5.47;2.30;;;;;;;18.58;48.38;101278.34;5033520;28;20088;-74
2021/05/19 04:10:24;;;;;;;7.53;2.60;;;;;;;18.58;47.89;101270.28;5017165;28;20092;-74
2021/05/19 04:12:51;;;;;;;5.30;2.47;;;;;;;18.59;48.41;101268.41;5017701;28;20041;-74
2021/05/19 04:15:21;;;;;;;5.10;2.38;;;;;;;18.58;48.65;101274.84;5033673;28;20124;-74
2021/05/19 04:17:48;;;;;;;4.78;2.10;;;;;;;18.58;48.22;101272.97;5033498;28;20506;-74
2021/05/19 04:20:15;;;;;;;5.47;2.40;;;;;;;18.55;48.10;101267.16;5017039;28;20124;-74
2021/05/19 04:22:43;;;;;;;5.68;2.30;;;;;;;18.58;48.46;101278.34;5017115;28;20045;-74
2021/05/19 04:25:10;;;;;;;5.63;2.35;;;;;;;18.57;48.47;101279.38;5033669;28;20096;-74
2021/05/19 04:27:38;;;;;;;5.78;2.38;;;;;;;18.60;48.25;101295.09;5000691;28;20506;-74
2021/05/19 04:30:07;;;;;;;5.43;2.40;;;;;;;18.58;48.52;101293.63;5034574;28;20045;-74
2021/05/19 04:32:34;;;;;;;6.00;2.33;;;;;;;18.55;48.50;101300.22;5004639;28;20041;-74
2021/05/19 04:35:11;;;;;;;4.88;2.20;;;;;;;18.61;48.03;101293.25;5009192;28;20037;-74
2021/05/19 04:37:38;;;;;;;5.95;2.40;;;;;;;18.60;48.04;101300.47;5036474;28;20532;-74
2021/05/19 04:40:06;;;;;;;4.50;2.17;;;;;;;18.61;48.15;101302.16;5020109;28;20102;-74
2021/05/19 04:42:34;;;;;;;5.05;2.17;;;;;;;18.60;48.29;101297.78;5052864;28;20041;-74
2021/05/19 04:45:01;;;;;;;5.45;2.20;;;;;;;18.60;48.11;101297.78;5036488;28;20051;-74
2021/05/19 04:47:27;;;;;;;5.65;2.20;;;;;;;18.62;48.25;101300.28;5035683;28;20095;-74
2021/05/19 04:49:54;;;;;;;5.75;2.20;;;;;;;18.61;47.96;101295.94;5020280;28;20057;-74
2021/05/19 04:52:23;;;;;;;5.05;1.98;;;;;;;18.59;48.34;101301.50;5052694;28;20072;-74
2021/05/19 04:54:50;;;;;;;5.03;2.10;;;;;;;18.58;48.30;101302.53;5052787;28;20045;-74
2021/05/19 04:57:17;;;;;;;5.35;2.17;;;;;;;18.58;48.30;101307.06;5035957;28;20472;-74
2021/05/19 04:59:44;;;;;;;5.00;2.05;;;;;;;18.60;48.05;101313.91;5043649;28;20041;-74
2021/05/19 05:02:11;;;;;;;4.25;1.98;;;;;;;18.59;48.16;101301.50;5031609;28;20115;-74
2021/05/19 05:04:38;;;;;;;4.45;2.05;;;;;;;18.60;48.14;101316.59;5016049;28;20045;-74
2021/05/19 05:07:04;;;;;;;5.35;2.10;;;;;;;18.61;48.34;101323.63;5033450;28;20042;-74
2021/05/19 05:09:31;;;;;;;5.43;2.20;;;;;;;18.59;48.16;101311.41;5033683;28;20063;-74
2021/05/19 05:11:59;;;;;;;4.78;2.15;;;;;;;18.57;48.33;101317.00;5011907;28;20137;-74
2021/05/19 05:14:26;;;;;;;5.47;2.10;;;;;;;18.58;48.43;101313.28;5028582;28;20045;-74
2021/05/19 05:16:53;;;;;;;4.97;2.17;;;;;;;18.54;48.34;101306.63;4995867;28;20601;-74
2021/05/19 05:19:20;;;;;;;4.45;1.90;;;;;;;18.58;48.43;101309.75;5012581;28;20050;-74
2021/05/19 05:21:47;;;;;;;5.60;2.20;;;;;;;18.50;48.28;101302.69;5012308;28;20101;-74
2021/05/19 05:24:14;;;;;;;5.95;2.10;;;;;;;18.58;48.42;101313.28;5013461;28;20069;-74
2021/05/19 05:26:40;;;;;;;5.55;1.85;;;;;;;18.60;48.24;101318.47;4993001;28;20080;-74
2021/05/19 05:29:07;;;;;;;5.03;2.10;;;;;;;18.61;48.36;101318.28;5015605;28;20069;-74
2021/05/19 05:31:34;;;;;;;4.18;1.80;;;;;;;18.57;48.21;101311.63;5031657;28;20124;-74
2021/05/19 05:34:01;;;;;;;5.55;2.00;;;;;;;18.61;48.44;101322.81;5015750;28;20042;-74
2021/05/19 05:36:28;;;;;;;4.47;1.92;;;;;;;18.59;48.38;101317.63;5032000;28;20060;-74
2021/05/19 05:38:55;;;;;;;5.32;2.03;;;;;;;18.60;48.14;101319.28;5031988;28;20102;-74
2021/05/19 05:41:22;;;;;;;4.28;1.88;;;;;;;18.63;48.27;101322.59;5015631;28;20049;-74
2021/05/19 05:43:49;;;;;;;4.70;2.00;;;;;;;18.62;48.35;101316.41;5032735;28;20095;-74
2021/05/19 05:46:16;;;;;;;4.03;1.85;;;;;;;18.64;48.24;101316.22;5031727;28;20045;-74
2021/05/19 05:48:43;;;;;;;5.45;1.77;;;;;;;18.64;48.32;101306.28;5031741;28;20045;-74
2021/05/19 05:51:10;;;;;;;3.80;1.80;;;;;;;18.64;48.13;101308.16;5015789;28;20046;-74
2021/05/19 05:53:37;;;;;;;4.13;1.83;;;;;;;18.65;48.21;101313.34;5015984;28;20033;-74
2021/05/19 05:56:04;;;;;;;4.85;1.70;;;;;;;18.66;48.31;101322.22;5031937;28;20052;-74
2021/05/19 05:58:31;;;;;;;4.75;1.80;;;;;;;18.62;48.36;101324.47;5031722;28;20122;-74
2021/05/19 06:00:57;;;;;;;4.20;1.90;;;;;;;18.63;48.34;101326.13;5032333;28;20491;-74
2021/05/19 06:03:24;;;;;;;4.63;2.00;;;;;;;18.65;48.40;101321.41;5016064;28;20045;-74
2021/05/19 06:05:51;;;;;;;4.63;2.00;;;;;;;18.65;48.23;101326.78;4999712;28;20132;-74
2021/05/19 06:08:18;;;;;;;4.18;1.80;;;;;;;18.65;48.30;101326.78;5016296;28;20095;-74
2021/05/19 06:10:45;;;;;;;4.18;1.80;;;;;;;18.64;48.18;101321.59;5032255;28;20053;-74
2021/05/19 06:13:12;;;;;;;4.53;2.00;;;;;;;18.64;48.44;101327.78;5016254;28;20037;-74
2021/05/19 06:15:39;;;;;;;4.68;2.10;;;;;;;18.64;48.30;101318.91;5032752;28;20532;-74
2021/05/19 06:18:05;;;;;;;4.95;2.05;;;;;;;18.58;48.42;101317.81;5037826;28;20029;-74
2021/05/19 06:20:32;;;;;;;4.53;1.83;;;;;;;18.63;48.31;101319.91;5039259;28;20045;-74
2021/05/19 06:22:59;;;;;;;4.63;1.80;;;;;;;18.65;47.92;101332.16;5057073;28;20057;-74
2021/05/19 06:25:26;;;;;;;4.70;1.80;;;;;;;18.64;48.19;101324.28;5057849;28;20050;-74
2021/05/19 06:27:53;;;;;;;4.63;1.80;;;;;;;18.55;48.27;101313.66;5020163;28;20045;-74
2021/05/19 06:30:20;;;;;;;5.13;1.83;;;;;;;18.64;48.19;101333.16;4999993;28;20054;-74
2021/05/19 06:32:47;;;;;;;4.18;1.88;;;;;;;18.64;48.23;101335.84;5025699;28;20396;-74
2021/05/19 06:35:14;;;;;;;3.78;1.80;;;;;;;18.66;48.26;101346.41;5016220;28;20044;-74
2021/05/19 06:37:41;;;;;;;4.30;1.90;;;;;;;18.65;48.37;101339.38;5031866;28;20495;-74
2021/05/19 06:40:09;;;;;;;4.53;1.90;;;;;;;18.66;48.27;101339.16;5031582;28;20460;-74
2021/05/19 06:42:35;;;;;;;5.70;1.70;;;;;;;18.66;48.27;101338.34;5031858;28;20565;-74
2021/05/19 06:45:03;;;;;;;4.07;1.70;;;;;;;18.66;48.45;101341.03;5015299;28;20038;-74
2021/05/19 06:47:32;;;;;;;4.25;1.70;;;;;;;18.66;48.35;101344.53;5031040;28;20046;-74
2021/05/19 06:49:59;;;;;;;4.68;1.77;;;;;;;18.64;48.36;101335.03;5015782;28;20398;-74
2021/05/19 06:52:27;;;;;;;3.97;1.70;;;;;;;18.64;48.51;101338.53;5031504;28;20537;-74
2021/05/19 06:54:54;;;;;;;3.65;1.70;;;;;;;18.68;48.10;101338.97;4999310;28;20103;-74
2021/05/19 06:57:21;;;;;;;4.10;1.67;;;;;;;18.67;48.17;101340.03;4999064;28;20054;-74
2021/05/19 06:59:50;;;;;;;3.83;1.80;;;;;;;18.68;48.26;101347.03;5024343;28;20049;-74
2021/05/19 07:02:17;;;;;;;3.92;1.60;;;;;;;18.66;48.38;101344.53;5017790;28;20057;-73
2021/05/19 07:04:44;;;;;;;4.32;1.70;;;;;;;18.64;48.42;101343.91;5014966;28;20029;-74
2021/05/19 07:07:11;;;;;;;4.72;1.90;;;;;;;18.64;47.86;101345.78;5017937;28;20119;-75
2021/05/19 07:09:37;;;;;;;8.10;2.70;;;;;;;18.57;47.64;101343.88;5013578;28;20741;-75
2021/05/19 07:12:05;;;;;;;10.65;2.70;;;;;;;18.53;47.06;101352.50;5030905;28;20458;-74
2021/05/19 07:14:35;;;;;;;10.00;2.80;;;;;;;18.47;46.92;101342.53;5043086;28;20037;-74
2021/05/19 07:17:02;;;;;;;8.75;2.90;;;;;;;18.52;46.87;101351.66;5053960;28;20073;-74
2021/05/19 07:19:30;;;;;;;11.88;3.00;;;;;;;18.50;46.87;101353.72;5036916;28;20071;-74
2021/05/19 07:21:57;;;;;;;12.15;3.20;;;;;;;18.46;46.66;101344.34;5047836;28;20052;-73
2021/05/19 07:24:24;;;;;;;9.55;3.00;;;;;;;18.44;46.54;101345.56;5028984;28;20042;-74
2021/05/19 07:26:52;;;;;;;9.98;2.90;;;;;;;18.43;46.33;101334.00;5014384;28;20046;-74
2021/05/19 07:29:19;;;;;;;10.23;3.08;;;;;;;18.34;46.21;101349.41;4999803;28;20396;-74
2021/05/19 07:31:47;;;;;;;11.93;3.50;;;;;;;18.14;46.21;101345.69;5014010;28;20111;-74
2021/05/19 07:34:14;;;;;;;22.90;9.35;;;;;;;18.09;46.19;101353.47;5023739;28;20045;-74
2021/05/19 07:36:41;;;;;;;19.15;7.70;;;;;;;18.12;46.30;101355.75;5032766;28;20041;-74
2021/05/19 07:39:08;;;;;;;17.88;6.05;;;;;;;17.87;46.33;101355.28;4981820;28;20041;-73
2021/05/19 07:41:36;;;;;;;16.05;5.20;;;;;;;17.80;45.95;101339.88;5023370;28;20053;-75
2021/05/19 07:44:04;;;;;;;11.93;4.57;;;;;;;17.91;45.84;101349.31;5012574;28;20048;-74
2021/05/19 07:46:32;;;;;;;17.42;4.60;;;;;;;17.84;45.62;101340.34;5014799;28;20057;-75
2021/05/19 07:48:58;;;;;;;14.27;3.83;;;;;;;17.93;45.93;101349.16;5031768;28;20044;-73
2021/05/19 07:51:23;;;;;;;13.65;4.13;;;;;;;17.94;45.99;101351.66;4997044;28;20042;-73
2021/05/19 07:53:50;;;;;;;12.00;3.50;;;;;;;18.11;45.72;101354.09;5030979;28;20034;-73
2021/05/19 07:59:02;;;;;;;13.07;3.42;;;;;;;18.31;45.52;101354.34;5102569;27;20835;-73
2021/05/19 08:04:15;;;;;;;12.77;3.10;;;;;;;18.42;45.69;101359.19;5063696;28;20496;-73
2021/05/19 08:06:41;;;;;;;13.63;3.40;;;;;;;18.44;45.68;101353.63;5092177;28;20122;-74
2021/05/19 08:09:07;;;;;;;9.15;2.90;;;;;;;18.45;45.59;101348.06;5091658;28;20127;-74
2021/05/19 08:11:34;;;;;;;11.40;2.90;;;;;;;18.51;45.77;101362.59;5062851;28;20123;-74
2021/05/19 08:14:01;;;;;;;10.88;2.80;;;;;;;18.50;45.52;101350.19;5075119;28;20043;-74
2021/05/19 08:16:27;;;;;;;10.45;2.90;;;;;;;18.59;45.41;101359.75;5091670;28;20051;-73
2021/05/19 08:18:53;;;;;;;12.95;3.08;;;;;;;18.56;45.60;101355.63;5085438;28;20115;-73
2021/05/19 08:21:20;;;;;;;9.52;2.88;;;;;;;18.68;45.30;101363.16;5055082;28;20037;-75
2021/05/19 08:23:47;;;;;;;9.90;2.78;;;;;;;18.75;45.14;101356.00;5062097;28;20059;-75
2021/05/19 08:26:14;;;;;;;9.18;2.90;;;;;;;18.85;44.83;101361.09;5087707;28;20493;-75
2021/05/19 08:28:41;;;;;;;9.77;2.67;;;;;;;18.92;44.65;101354.75;5075059;28;20040;-74
2021/05/19 08:31:10;;;;;;;11.40;3.05;;;;;;;18.98;44.68;101361.19;5058541;28;20050;-74
2021/05/19 08:33:42;;;;;;;10.85;2.90;;;;;;;19.01;44.65;101355.44;5088805;28;20093;-75
2021/05/19 08:36:10;;;;;;;14.70;4.90;;;;;;;18.99;44.92;101361.00;5061724;28;20044;-75
2021/05/19 08:38:38;;;;;;;31.40;14.18;;;;;;;19.02;44.88;101356.25;5088827;28;20427;-74
2021/05/19 08:41:06;;;;;;;41.72;23.88;;;;;;;19.10;44.84;101353.41;5107643;28;20047;-74
2021/05/19 08:43:34;;;;;;;67.72;36.25;;;;;;;19.16;44.72;101361.53;5086787;28;20062;-76
2021/05/19 08:46:09;;;;;;;61.13;34.70;;;;;;;19.23;44.63;101358.06;5088529;28;21531;-76
2021/05/19 08:48:37;;;;;;;53.40;31.88;;;;;;;19.26;44.80;101360.34;5106374;27;20119;-73
2021/05/19 08:51:05;;;;;;;56.47;33.88;;;;;;;19.20;44.79;101356.59;5101557;28;20072;-73
2021/05/19 08:53:33;;;;;;;64.78;39.50;;;;;;;19.31;44.51;101349.84;5061552;28;20051;-73
2021/05/19 08:56:11;;;;;;;61.22;36.75;;;;;;;19.40;44.39;101345.97;5058651;28;20079;-74
2021/05/19 08:58:38;;;;;;;61.00;36.33;;;;;;;19.32;44.71;101349.66;5036154;28;20082;-73
2021/05/19 09:01:05;;;;;;;54.22;32.45;;;;;;;19.30;44.66;101348.16;5055799;28;20647;-73
2021/05/19 09:03:34;;;;;;;53.80;32.03;;;;;;;19.37;44.66;101355.28;5059708;28;20043;-73
2021/05/19 09:06:07;;;;;;;55.25;31.25;;;;;;;19.42;44.75;101351.16;5049400;28;20059;-72
2021/05/19 09:08:38;;;;;;;51.13;31.45;;;;;;;19.49;44.65;101347.47;5051330;28;20047;-74
2021/05/19 09:11:10;;;;;;;51.92;30.23;;;;;;;19.51;44.47;101342.72;5044040;28;20052;-74
2021/05/19 09:13:44;;;;;;;46.20;28.52;;;;;;;19.58;44.51;101344.63;5042624;28;20041;-73
2021/05/19 09:16:15;;;;;;;48.05;28.70;;;;;;;19.50;44.38;101326.75;5064085;28;20512;-73
2021/05/19 09:18:54;;;;;;;52.60;29.08;;;;;;;19.58;44.48;101339.25;5043189;28;20041;-74
2021/05/19 09:21:42;;;;;;;45.45;28.17;;;;;;;19.61;44.57;101337.00;5028764;28;20041;-73
2021/05/19 09:24:20;;;;;;;44.60;27.55;;;;;;;19.61;44.23;101330.75;5039529;28;20041;-73
2021/05/19 09:26:58;;;;;;;48.90;28.10;;;;;;;19.60;44.28;101321.03;5026687;28;20057;-73
2021/05/19 09:29:29;;;;;;;43.70;26.98;;;;;;;19.64;44.41;101323.13;5068723;28;20497;-73
2021/05/19 09:32:00;;;;;;;49.93;28.13;;;;;;;19.65;44.84;101323.97;5059068;28;20049;-73
2021/05/19 09:34:31;;;;;;;44.80;26.25;;;;;;;19.66;44.39;101322.91;5062222;28;20055;-74
2021/05/19 09:37:26;;;;;;;44.87;26.03;;;;;;;19.66;44.69;101320.22;5055879;28;20091;-74
2021/05/19 09:45:25;;;;;;;39.30;24.77;;;;;;;19.77;44.42;101311.59;5137159;27;20380;-73
2021/05/19 09:47:54;;;;;;;38.13;24.25;;;;;;;19.79;44.14;101316.78;5103090;27;20031;-73
2021/05/19 09:50:23;;;;;;;38.03;24.20;;;;;;;19.79;44.59;101316.78;5124879;27;20097;-73
2021/05/19 09:53:12;;;;;;;39.72;23.77;;;;;;;19.77;44.16;101316.16;5125802;27;20411;-74
2021/05/19 09:55:41;;;;;;;38.83;23.33;;;;;;;19.62;44.89;101308.22;5097623;28;20036;-74
2021/05/19 09:58:08;;;;;;;37.58;22.38;;;;;;;19.69;44.68;101317.97;5126735;27;20112;-73
2021/05/19 10:00:36;;;;;;;35.17;21.88;;;;;;;19.82;44.48;101308.31;5111055;28;20043;-75
2021/05/19 10:03:06;;;;;;;35.50;21.20;;;;;;;19.70;44.63;101303.50;5081618;27;20048;-72
2021/05/19 10:05:39;;;;;;;34.30;20.65;;;;;;;19.69;44.52;101303.69;5133775;27;20050;-72
2021/05/19 10:08:06;;;;;;;35.03;21.05;;;;;;;19.71;44.56;101304.31;5122155;28;20048;-72
2021/05/19 10:10:34;;;;;;;35.75;21.65;;;;;;;19.79;44.28;101306.03;5109384;27;20047;-72
2021/05/19 10:13:03;;;;;;;32.40;20.15;;;;;;;19.65;44.67;101300.56;5115489;27;20058;-72
2021/05/19 10:15:31;;;;;;;33.15;19.40;;;;;;;19.56;45.02;101307.97;5126386;28;20120;-72
2021/05/19 10:18:03;;;;;;;35.17;20.15;;;;;;;19.52;45.04;101308.59;5104022;27;20043;-72
2021/05/19 10:20:35;;;;;;;30.85;19.02;;;;;;;19.44;45.40;101304.19;5108743;27;20050;-72
2021/05/19 10:23:05;;;;;;;34.10;18.60;;;;;;;19.41;45.23;101298.38;5114529;27;20078;-72
2021/05/19 10:25:38;;;;;;;30.42;18.05;;;;;;;19.37;45.31;101300.63;5142825;27;20065;-72
2021/05/19 10:28:08;;;;;;;30.55;18.40;;;;;;;19.53;45.21;101300.28;5139119;27;20130;-72
2021/05/19 10:30:49;;;;;;;26.38;15.80;;;;;;;19.55;44.64;101289.34;5137225;27;20092;-72
2021/05/19 10:33:39;;;;;;;28.17;17.52;;;;;;;19.68;44.60;101285.88;5124240;27;20112;-72
2021/05/19 10:41:51;;;;;;;29.85;16.83;;;;;;;19.58;44.91;101259.34;5023166;27;716316;-73
2021/05/19 10:44:21;;;;;;;27.92;16.08;;;;;;;19.73;44.88;101264.59;5011655;28;20520;-73
2021/05/19 10:49:53;;;;;;;26.27;15.85;;;;;;;19.79;44.80;101269.16;5070634;27;20400;-74
2021/05/19 10:52:33;;;;;;;30.45;15.82;;;;;;;19.65;45.17;101265.59;5088034;28;20052;-73
2021/05/19 10:58:20;;;;;;;26.30;14.98;;;;;;;19.59;45.41;101265.53;5076854;28;20408;-73
2021/05/19 11:00:47;;;;;;;25.98;13.80;;;;;;;19.50;45.36;101263.03;5069204;28;20400;-72
2021/05/19 11:03:14;;;;;;;24.27;14.25;;;;;;;19.47;45.54;101263.44;5061455;28;20444;-72
2021/05/19 11:08:35;;;;;;;23.27;13.95;;;;;;;19.64;45.26;101260.41;5142135;27;20355;-73
2021/05/19 11:11:27;;;;;;;25.50;13.50;;;;;;;19.87;44.92;101263.59;5078116;27;20086;-73
2021/05/19 11:14:00;;;;;;;22.23;12.90;;;;;;;19.89;44.66;101263.41;5100159;28;20039;-73
2021/05/19 11:16:50;;;;;;;25.83;13.95;;;;;;;19.93;44.95;101259.28;5142283;27;20039;-73
2021/05/19 11:19:27;;;;;;;21.73;13.05;;;;;;;19.81;45.23;101259.06;5100834;27;20399;-74
2021/05/19 11:22:12;;;;;;;23.77;12.77;;;;;;;19.64;45.35;101253.16;5126980;27;20055;-72
2021/05/19 11:24:49;;;;;;;21.63;12.55;;;;;;;19.59;45.64;101262.84;5134078;27;20108;-72
2021/05/19 11:27:19;;;;;;;21.98;12.38;;;;;;;19.56;45.90;101269.47;5126857;27;20039;-72
2021/05/19 11:29:46;;;;;;;21.50;11.88;;;;;;;19.57;45.56;101271.13;5130896;27;20131;-74
2021/05/19 11:32:18;;;;;;;19.50;11.77;;;;;;;19.52;45.79;101277.13;5137903;27;20096;-74
2021/05/19 11:34:46;;;;;;;20.42;11.73;;;;;;;19.51;46.19;101274.63;5112036;28;20039;-74
2021/05/19 11:37:15;;;;;;;21.67;11.23;;;;;;;19.54;45.87;101282.31;5131428;27;20031;-73
2021/05/19 11:39:46;;;;;;;21.10;11.45;;;;;;;19.53;46.04;101280.63;5133796;27;20116;-73
2021/05/19 11:42:33;;;;;;;21.37;11.13;;;;;;;19.58;46.09;101280.06;5079253;28;20147;-72
2021/05/19 11:45:05;;;;;;;21.10;11.07;;;;;;;19.59;46.09;101279.81;5107904;28;20043;-72
2021/05/19 11:50:12;;;;;;;24.90;14.35;;;;;;;19.56;46.27;101261.41;5122977;27;20411;-71
2021/05/19 11:55:36;;;;;;;62.92;33.78;;;;;;;19.77;46.13;101252.38;5072423;28;20425;-71
2021/05/19 12:01:01;;;;;;;52.58;28.17;;;;;;;20.06;45.77;101253.91;5103913;27;20741;-71